Clarksville, AR

7:09 PM CDT on August 20, 2017 (GMT -0500)
The GRAPHIC(West Main) | | Change Station
Active Advisory: Heat Advisory

Elev 410 ft 35.47 °N, 93.50 °W | Updated 6 seconds ago

Clear
Clear
89.8 °F
Feels Like 102 °F
N
16.1
Wind Variable Wind from WSW
Gusts 0.0 mph

Today
High -- | Low -- °F
--% Chance of Precip.
Yesterday
High -- | Low -- °F
Precip. -- in
Pressure 29.96 in
Visibility 10.0 miles
Clouds Clear
Heat Index 102 °F
Dew Point 76 °F
Humidity 64%
Rainfall 0.00 in
Snow Depth Not available.
6:37 AM 7:56 PM
Waning Crescent, 1% visible
METAR KRUE 202353Z AUTO 00000KT 10SM CLR 29/26 A2998 RMK AO2 SLP144 T02940261 10356 20294 50002
Pressure 29.96 in
Visibility 10.0 miles
Clouds Clear
Heat Index 102 °F
Dew Point 76 °F
Humidity 64%
Rainfall 0.00 in
Snow Depth Not available.
6:37 AM 7:56 PM
Waning Crescent, 1% visible
METAR KRUE 202353Z AUTO 00000KT 10SM CLR 29/26 A2998 RMK AO2 SLP144 T02940261 10356 20294 50002

Get Your Daily Forecast Email!

Thanks for signing up!

Be on the lookout for a verification email in your inbox.

You'll start receiving severe weather alerts in your inbox..

×

10-Day Weather Forecast

Almanac

Astronomy

Aug. 20, 2017 Rise Set
Actual Time
Civil Twilight
Nautical Twilight
Astronomical Twilight
Moon
Length of Visible Light
Length of Day
Tomorrow will be .
, % of the Moon is Illuminated

Today's Extremes

State Highs State Lows

Community

WunderPhotos

Category 6

Welcome to Category 6. This is the collective home for Weather Underground's featured writeups by Dr. Jeff Masters (right), Bob Henson (left), Chris Burt, and other regular contributors.

Nearby

Air Quality

  Air Quality AQ Index Pollutant
Not available.

Snow Depth

Station Depth Elevation

Earthquake Activity

City Distance Mag. Time & Date
Minimum magnitude displayed is 2.5.

Coastal Water Temperatures

Place Temperature

Stations

Nearby Weather Stations

Station Location Temp. Windchill Dew Point Humidity Wind Precip. Elev Updated Type
                   

Watches & Warnings

Heat Advisory
Issued: 7:06 PM CDT Aug. 20, 2017 – National Weather Service

... Heat advisory has expired...

The heat advisory for parts of central and much of southern
Arkansas has been allowed to expire. Heat index values are
lowering below criteria.


59